sensor_id;sensor_type;location;lat;lon;timestamp;P1;durP1;ratioP1;P2;durP2;ratioP2
16294;SDS011;8255;49.560;8.244;2023-05-07T00:01:12;3.72;;;3.13;;
16294;SDS011;8255;49.560;8.244;2023-05-07T00:03:38;4.00;;;3.70;;
16294;SDS011;8255;49.560;8.244;2023-05-07T00:06:05;3.60;;;3.30;;
16294;SDS011;8255;49.560;8.244;2023-05-07T00:08:32;4.43;;;3.30;;
16294;SDS011;8255;49.560;8.244;2023-05-07T00:10:59;3.80;;;2.90;;
16294;SDS011;8255;49.560;8.244;2023-05-07T00:13:26;3.10;;;2.90;;
16294;SDS011;8255;49.560;8.244;2023-05-07T00:15:55;3.63;;;3.35;;
16294;SDS011;8255;49.560;8.244;2023-05-07T00:18:21;3.40;;;3.20;;
16294;SDS011;8255;49.560;8.244;2023-05-07T00:20:48;5.15;;;3.30;;
16294;SDS011;8255;49.560;8.244;2023-05-07T00:23:14;3.10;;;2.90;;
16294;SDS011;8255;49.560;8.244;2023-05-07T00:25:42;2.95;;;2.75;;
16294;SDS011;8255;49.560;8.244;2023-05-07T00:28:09;3.80;;;2.88;;
16294;SDS011;8255;49.560;8.244;2023-05-07T00:30:35;4.15;;;3.00;;
16294;SDS011;8255;49.560;8.244;2023-05-07T00:33:02;2.97;;;2.78;;
16294;SDS011;8255;49.560;8.244;2023-05-07T00:35:28;3.22;;;2.97;;
16294;SDS011;8255;49.560;8.244;2023-05-07T00:37:55;3.38;;;3.10;;
16294;SDS011;8255;49.560;8.244;2023-05-07T00:40:22;2.95;;;2.78;;
16294;SDS011;8255;49.560;8.244;2023-05-07T00:42:50;3.20;;;2.90;;
16294;SDS011;8255;49.560;8.244;2023-05-07T00:45:21;4.57;;;2.92;;
16294;SDS011;8255;49.560;8.244;2023-05-07T00:47:49;3.28;;;3.08;;
16294;SDS011;8255;49.560;8.244;2023-05-07T00:50:15;5.18;;;2.90;;
16294;SDS011;8255;49.560;8.244;2023-05-07T00:52:42;2.90;;;2.70;;
16294;SDS011;8255;49.560;8.244;2023-05-07T00:55:09;3.03;;;2.83;;
16294;SDS011;8255;49.560;8.244;2023-05-07T00:57:36;5.20;;;3.10;;
16294;SDS011;8255;49.560;8.244;2023-05-07T01:00:05;3.20;;;3.00;;
16294;SDS011;8255;49.560;8.244;2023-05-07T01:02:33;3.30;;;3.00;;
16294;SDS011;8255;49.560;8.244;2023-05-07T01:05:01;2.90;;;2.70;;
16294;SDS011;8255;49.560;8.244;2023-05-07T01:07:28;2.88;;;2.67;;
16294;SDS011;8255;49.560;8.244;2023-05-07T01:09:54;2.90;;;2.70;;
16294;SDS011;8255;49.560;8.244;2023-05-07T01:12:21;2.92;;;2.65;;
16294;SDS011;8255;49.560;8.244;2023-05-07T01:14:48;4.53;;;3.55;;
16294;SDS011;8255;49.560;8.244;2023-05-07T01:17:17;3.10;;;2.90;;
16294;SDS011;8255;49.560;8.244;2023-05-07T01:19:45;3.05;;;2.85;;
16294;SDS011;8255;49.560;8.244;2023-05-07T01:22:13;2.83;;;2.63;;
16294;SDS011;8255;49.560;8.244;2023-05-07T01:24:48;2.97;;;2.78;;
16294;SDS011;8255;49.560;8.244;2023-05-07T01:27:16;4.68;;;3.13;;
16294;SDS011;8255;49.560;8.244;2023-05-07T01:29:42;4.15;;;2.88;;
16294;SDS011;8255;49.560;8.244;2023-05-07T01:32:09;2.80;;;2.70;;
16294;SDS011;8255;49.560;8.244;2023-05-07T01:34:36;3.88;;;3.17;;
16294;SDS011;8255;49.560;8.244;2023-05-07T01:37:03;3.20;;;3.00;;
16294;SDS011;8255;49.560;8.244;2023-05-07T01:39:30;2.90;;;2.70;;
16294;SDS011;8255;49.560;8.244;2023-05-07T01:41:58;3.20;;;3.00;;
16294;SDS011;8255;49.560;8.244;2023-05-07T01:44:25;3.10;;;2.90;;
16294;SDS011;8255;49.560;8.244;2023-05-07T01:46:51;2.75;;;2.65;;
16294;SDS011;8255;49.560;8.244;2023-05-07T01:49:20;4.15;;;3.00;;
16294;SDS011;8255;49.560;8.244;2023-05-07T01:51:46;3.08;;;2.90;;
16294;SDS011;8255;49.560;8.244;2023-05-07T01:54:12;3.38;;;3.00;;
16294;SDS011;8255;49.560;8.244;2023-05-07T01:56:40;3.25;;;3.05;;
16294;SDS011;8255;49.560;8.244;2023-05-07T01:59:08;3.05;;;2.90;;
16294;SDS011;8255;49.560;8.244;2023-05-07T02:01:34;3.00;;;2.80;;
16294;SDS011;8255;49.560;8.244;2023-05-07T02:04:01;3.40;;;3.08;;
16294;SDS011;8255;49.560;8.244;2023-05-07T02:06:29;3.42;;;3.22;;
16294;SDS011;8255;49.560;8.244;2023-05-07T02:09:00;3.30;;;3.10;;
16294;SDS011;8255;49.560;8.244;2023-05-07T02:11:27;3.15;;;2.95;;
16294;SDS011;8255;49.560;8.244;2023-05-07T02:13:54;4.95;;;3.50;;
16294;SDS011;8255;49.560;8.244;2023-05-07T02:16:21;3.53;;;2.85;;
16294;SDS011;8255;49.560;8.244;2023-05-07T02:18:50;3.50;;;3.30;;
16294;SDS011;8255;49.560;8.244;2023-05-07T02:21:17;4.28;;;3.25;;
16294;SDS011;8255;49.560;8.244;2023-05-07T02:23:43;3.28;;;3.00;;
16294;SDS011;8255;49.560;8.244;2023-05-07T02:26:10;3.35;;;3.05;;
16294;SDS011;8255;49.560;8.244;2023-05-07T02:28:37;3.15;;;2.95;;
16294;SDS011;8255;49.560;8.244;2023-05-07T02:31:05;3.50;;;3.20;;
16294;SDS011;8255;49.560;8.244;2023-05-07T02:33:33;3.15;;;2.95;;
16294;SDS011;8255;49.560;8.244;2023-05-07T02:36:06;5.13;;;3.30;;
16294;SDS011;8255;49.560;8.244;2023-05-07T02:38:35;3.63;;;3.33;;
16294;SDS011;8255;49.560;8.244;2023-05-07T02:41:02;4.93;;;3.30;;
16294;SDS011;8255;49.560;8.244;2023-05-07T02:43:28;3.55;;;3.35;;
16294;SDS011;8255;49.560;8.244;2023-05-07T02:46:04;3.78;;;3.30;;
16294;SDS011;8255;49.560;8.244;2023-05-07T02:48:34;3.63;;;3.42;;
16294;SDS011;8255;49.560;8.244;2023-05-07T02:51:01;3.90;;;3.65;;
16294;SDS011;8255;49.560;8.244;2023-05-07T02:53:28;3.60;;;3.40;;
16294;SDS011;8255;49.560;8.244;2023-05-07T02:55:55;3.85;;;3.58;;
16294;SDS011;8255;49.560;8.244;2023-05-07T02:58:22;3.60;;;3.30;;
16294;SDS011;8255;49.560;8.244;2023-05-07T03:00:49;4.47;;;4.03;;
16294;SDS011;8255;49.560;8.244;2023-05-07T03:03:37;4.13;;;3.78;;
16294;SDS011;8255;49.560;8.244;2023-05-07T03:06:03;4.15;;;3.85;;
16294;SDS011;8255;49.560;8.244;2023-05-07T03:08:30;4.25;;;3.95;;
16294;SDS011;8255;49.560;8.244;2023-05-07T03:10:56;4.22;;;3.80;;
16294;SDS011;8255;49.560;8.244;2023-05-07T03:13:23;4.57;;;4.25;;
16294;SDS011;8255;49.560;8.244;2023-05-07T03:15:50;4.78;;;4.18;;
16294;SDS011;8255;49.560;8.244;2023-05-07T03:18:16;4.22;;;3.92;;
16294;SDS011;8255;49.560;8.244;2023-05-07T03:20:44;3.55;;;3.35;;
16294;SDS011;8255;49.560;8.244;2023-05-07T03:23:10;4.13;;;3.83;;
16294;SDS011;8255;49.560;8.244;2023-05-07T03:25:37;3.85;;;3.55;;
16294;SDS011;8255;49.560;8.244;2023-05-07T03:28:03;4.20;;;3.80;;
16294;SDS011;8255;49.560;8.244;2023-05-07T03:30:45;5.15;;;4.03;;
16294;SDS011;8255;49.560;8.244;2023-05-07T03:33:12;5.22;;;4.38;;
16294;SDS011;8255;49.560;8.244;2023-05-07T03:35:39;4.15;;;3.85;;
16294;SDS011;8255;49.560;8.244;2023-05-07T03:38:07;4.57;;;4.35;;
16294;SDS011;8255;49.560;8.244;2023-05-07T03:40:35;4.60;;;4.20;;
16294;SDS011;8255;49.560;8.244;2023-05-07T03:43:03;4.22;;;3.92;;
16294;SDS011;8255;49.560;8.244;2023-05-07T03:45:31;4.30;;;3.90;;
16294;SDS011;8255;49.560;8.244;2023-05-07T03:48:07;4.60;;;4.30;;
16294;SDS011;8255;49.560;8.244;2023-05-07T03:50:33;4.72;;;4.20;;
16294;SDS011;8255;49.560;8.244;2023-05-07T03:53:00;4.72;;;4.30;;
16294;SDS011;8255;49.560;8.244;2023-05-07T03:55:30;5.18;;;3.95;;
16294;SDS011;8255;49.560;8.244;2023-05-07T03:57:59;4.43;;;4.13;;
16294;SDS011;8255;49.560;8.244;2023-05-07T04:00:26;4.32;;;3.92;;
16294;SDS011;8255;49.560;8.244;2023-05-07T04:02:58;4.35;;;3.95;;
16294;SDS011;8255;49.560;8.244;2023-05-07T04:05:27;3.90;;;3.70;;
16294;SDS011;8255;49.560;8.244;2023-05-07T04:07:58;4.30;;;4.00;;
16294;SDS011;8255;49.560;8.244;2023-05-07T04:10:33;4.38;;;3.78;;
16294;SDS011;8255;49.560;8.244;2023-05-07T04:13:03;4.32;;;4.03;;
16294;SDS011;8255;49.560;8.244;2023-05-07T04:15:30;4.38;;;3.97;;
16294;SDS011;8255;49.560;8.244;2023-05-07T04:17:56;4.32;;;3.92;;
16294;SDS011;8255;49.560;8.244;2023-05-07T04:20:24;4.10;;;3.78;;
16294;SDS011;8255;49.560;8.244;2023-05-07T04:22:57;4.38;;;4.07;;
16294;SDS011;8255;49.560;8.244;2023-05-07T04:25:24;4.30;;;3.90;;
16294;SDS011;8255;49.560;8.244;2023-05-07T04:27:56;5.55;;;4.25;;
16294;SDS011;8255;49.560;8.244;2023-05-07T04:30:25;4.28;;;3.95;;
16294;SDS011;8255;49.560;8.244;2023-05-07T04:32:52;4.18;;;3.80;;
16294;SDS011;8255;49.560;8.244;2023-05-07T04:35:19;5.18;;;3.92;;
16294;SDS011;8255;49.560;8.244;2023-05-07T04:37:46;5.93;;;4.10;;
16294;SDS011;8255;49.560;8.244;2023-05-07T04:40:13;5.10;;;4.35;;
16294;SDS011;8255;49.560;8.244;2023-05-07T04:42:40;5.18;;;4.05;;
16294;SDS011;8255;49.560;8.244;2023-05-07T04:45:09;4.93;;;4.53;;
16294;SDS011;8255;49.560;8.244;2023-05-07T04:47:38;6.88;;;3.78;;
16294;SDS011;8255;49.560;8.244;2023-05-07T04:50:05;4.07;;;3.88;;
16294;SDS011;8255;49.560;8.244;2023-05-07T04:52:32;4.30;;;3.95;;
16294;SDS011;8255;49.560;8.244;2023-05-07T04:55:00;4.30;;;4.00;;
16294;SDS011;8255;49.560;8.244;2023-05-07T04:57:30;3.90;;;3.60;;
16294;SDS011;8255;49.560;8.244;2023-05-07T04:59:57;4.03;;;3.80;;
16294;SDS011;8255;49.560;8.244;2023-05-07T05:02:24;4.10;;;3.80;;
16294;SDS011;8255;49.560;8.244;2023-05-07T05:04:51;4.85;;;3.90;;
16294;SDS011;8255;49.560;8.244;2023-05-07T05:07:17;3.75;;;3.55;;
16294;SDS011;8255;49.560;8.244;2023-05-07T05:09:44;4.30;;;3.90;;
16294;SDS011;8255;49.560;8.244;2023-05-07T05:12:10;4.15;;;3.85;;
16294;SDS011;8255;49.560;8.244;2023-05-07T05:14:37;4.13;;;3.80;;
16294;SDS011;8255;49.560;8.244;2023-05-07T05:17:04;6.22;;;3.75;;
16294;SDS011;8255;49.560;8.244;2023-05-07T05:19:32;4.15;;;3.67;;
16294;SDS011;8255;49.560;8.244;2023-05-07T05:21:58;4.03;;;3.67;;
16294;SDS011;8255;49.560;8.244;2023-05-07T05:24:26;4.15;;;3.83;;
16294;SDS011;8255;49.560;8.244;2023-05-07T05:26:52;3.97;;;3.67;;
16294;SDS011;8255;49.560;8.244;2023-05-07T05:29:20;4.00;;;3.70;;
16294;SDS011;8255;49.560;8.244;2023-05-07T05:31:46;4.07;;;3.50;;
16294;SDS011;8255;49.560;8.244;2023-05-07T05:34:13;3.92;;;3.53;;
16294;SDS011;8255;49.560;8.244;2023-05-07T05:36:42;3.72;;;3.53;;
16294;SDS011;8255;49.560;8.244;2023-05-07T05:39:08;3.88;;;3.53;;
16294;SDS011;8255;49.560;8.244;2023-05-07T05:41:35;3.75;;;3.47;;
16294;SDS011;8255;49.560;8.244;2023-05-07T05:44:02;3.67;;;3.38;;
16294;SDS011;8255;49.560;8.244;2023-05-07T05:46:29;3.80;;;3.50;;
16294;SDS011;8255;49.560;8.244;2023-05-07T05:48:55;4.00;;;3.60;;
16294;SDS011;8255;49.560;8.244;2023-05-07T05:51:22;3.63;;;3.42;;
16294;SDS011;8255;49.560;8.244;2023-05-07T05:53:50;3.85;;;3.65;;
16294;SDS011;8255;49.560;8.244;2023-05-07T05:56:17;3.60;;;3.30;;
16294;SDS011;8255;49.560;8.244;2023-05-07T05:58:43;3.30;;;3.10;;
16294;SDS011;8255;49.560;8.244;2023-05-07T06:01:10;3.72;;;3.53;;
16294;SDS011;8255;49.560;8.244;2023-05-07T06:03:37;4.28;;;3.88;;
16294;SDS011;8255;49.560;8.244;2023-05-07T06:06:08;4.28;;;3.78;;
16294;SDS011;8255;49.560;8.244;2023-05-07T06:08:34;3.83;;;3.55;;
16294;SDS011;8255;49.560;8.244;2023-05-07T06:11:03;3.95;;;3.65;;
16294;SDS011;8255;49.560;8.244;2023-05-07T06:13:33;4.05;;;3.20;;
16294;SDS011;8255;49.560;8.244;2023-05-07T06:16:00;4.22;;;3.83;;
16294;SDS011;8255;49.560;8.244;2023-05-07T06:18:26;3.83;;;3.45;;
16294;SDS011;8255;49.560;8.244;2023-05-07T06:20:53;3.58;;;3.38;;
16294;SDS011;8255;49.560;8.244;2023-05-07T06:23:24;4.28;;;3.63;;
16294;SDS011;8255;49.560;8.244;2023-05-07T06:25:51;3.47;;;3.22;;
16294;SDS011;8255;49.560;8.244;2023-05-07T06:28:22;3.40;;;3.20;;
16294;SDS011;8255;49.560;8.244;2023-05-07T06:30:50;3.38;;;3.08;;
16294;SDS011;8255;49.560;8.244;2023-05-07T06:33:17;4.95;;;3.22;;
16294;SDS011;8255;49.560;8.244;2023-05-07T06:35:45;3.28;;;3.08;;
16294;SDS011;8255;49.560;8.244;2023-05-07T06:38:11;4.00;;;2.78;;
16294;SDS011;8255;49.560;8.244;2023-05-07T06:40:38;3.50;;;3.20;;
16294;SDS011;8255;49.560;8.244;2023-05-07T06:43:04;3.40;;;3.20;;
16294;SDS011;8255;49.560;8.244;2023-05-07T06:45:46;3.00;;;2.75;;
16294;SDS011;8255;49.560;8.244;2023-05-07T06:48:12;2.75;;;2.50;;
16294;SDS011;8255;49.560;8.244;2023-05-07T06:51:02;2.88;;;2.72;;
16294;SDS011;8255;49.560;8.244;2023-05-07T06:53:29;2.90;;;2.78;;
16294;SDS011;8255;49.560;8.244;2023-05-07T06:55:57;3.92;;;2.83;;
16294;SDS011;8255;49.560;8.244;2023-05-07T06:58:24;2.95;;;2.60;;
16294;SDS011;8255;49.560;8.244;2023-05-07T07:00:52;3.85;;;2.95;;
16294;SDS011;8255;49.560;8.244;2023-05-07T07:03:19;3.00;;;2.70;;
16294;SDS011;8255;49.560;8.244;2023-05-07T07:05:46;3.47;;;2.40;;
16294;SDS011;8255;49.560;8.244;2023-05-07T07:08:12;3.00;;;2.90;;
16294;SDS011;8255;49.560;8.244;2023-05-07T07:10:40;4.40;;;2.65;;
16294;SDS011;8255;49.560;8.244;2023-05-07T07:13:06;3.00;;;2.70;;
16294;SDS011;8255;49.560;8.244;2023-05-07T07:15:32;3.65;;;2.78;;
16294;SDS011;8255;49.560;8.244;2023-05-07T07:18:00;4.10;;;2.40;;
16294;SDS011;8255;49.560;8.244;2023-05-07T07:20:27;3.10;;;2.80;;
16294;SDS011;8255;49.560;8.244;2023-05-07T07:22:54;2.42;;;2.33;;
16294;SDS011;8255;49.560;8.244;2023-05-07T07:25:20;2.80;;;2.70;;
16294;SDS011;8255;49.560;8.244;2023-05-07T07:27:47;2.88;;;2.67;;
16294;SDS011;8255;49.560;8.244;2023-05-07T07:30:14;3.30;;;2.70;;
16294;SDS011;8255;49.560;8.244;2023-05-07T07:32:44;2.72;;;2.63;;
16294;SDS011;8255;49.560;8.244;2023-05-07T07:35:12;6.10;;;2.60;;
16294;SDS011;8255;49.560;8.244;2023-05-07T07:37:39;3.17;;;2.88;;
16294;SDS011;8255;49.560;8.244;2023-05-07T07:40:06;2.97;;;2.70;;
16294;SDS011;8255;49.560;8.244;2023-05-07T07:42:33;2.90;;;2.47;;
16294;SDS011;8255;49.560;8.244;2023-05-07T07:45:00;2.60;;;2.50;;
16294;SDS011;8255;49.560;8.244;2023-05-07T07:47:30;2.40;;;2.30;;
16294;SDS011;8255;49.560;8.244;2023-05-07T07:49:56;2.50;;;2.40;;
16294;SDS011;8255;49.560;8.244;2023-05-07T07:52:24;3.17;;;2.47;;
16294;SDS011;8255;49.560;8.244;2023-05-07T07:54:51;2.60;;;2.50;;
16294;SDS011;8255;49.560;8.244;2023-05-07T07:57:17;3.13;;;2.50;;
16294;SDS011;8255;49.560;8.244;2023-05-07T07:59:45;2.45;;;2.28;;
16294;SDS011;8255;49.560;8.244;2023-05-07T08:02:13;5.00;;;2.50;;
16294;SDS011;8255;49.560;8.244;2023-05-07T08:04:39;2.58;;;2.47;;
16294;SDS011;8255;49.560;8.244;2023-05-07T08:07:08;2.55;;;2.20;;
16294;SDS011;8255;49.560;8.244;2023-05-07T08:09:39;3.83;;;2.78;;
16294;SDS011;8255;49.560;8.244;2023-05-07T08:12:07;3.03;;;2.53;;
16294;SDS011;8255;49.560;8.244;2023-05-07T08:14:33;2.60;;;2.40;;
16294;SDS011;8255;49.560;8.244;2023-05-07T08:17:01;2.40;;;2.30;;
16294;SDS011;8255;49.560;8.244;2023-05-07T08:19:28;3.38;;;2.55;;
16294;SDS011;8255;49.560;8.244;2023-05-07T08:21:55;2.45;;;2.30;;
16294;SDS011;8255;49.560;8.244;2023-05-07T08:24:23;2.47;;;2.28;;
16294;SDS011;8255;49.560;8.244;2023-05-07T08:26:51;3.35;;;2.40;;
16294;SDS011;8255;49.560;8.244;2023-05-07T08:29:18;3.70;;;2.47;;
16294;SDS011;8255;49.560;8.244;2023-05-07T08:31:45;2.80;;;2.50;;
16294;SDS011;8255;49.560;8.244;2023-05-07T08:34:12;2.25;;;2.10;;
16294;SDS011;8255;49.560;8.244;2023-05-07T08:36:41;2.67;;;2.45;;
16294;SDS011;8255;49.560;8.244;2023-05-07T08:39:09;2.60;;;2.45;;
16294;SDS011;8255;49.560;8.244;2023-05-07T08:41:35;3.35;;;2.30;;
16294;SDS011;8255;49.560;8.244;2023-05-07T08:44:04;2.30;;;2.20;;
16294;SDS011;8255;49.560;8.244;2023-05-07T08:46:33;2.88;;;2.67;;
16294;SDS011;8255;49.560;8.244;2023-05-07T08:49:00;2.78;;;2.58;;
16294;SDS011;8255;49.560;8.244;2023-05-07T08:51:26;3.03;;;2.88;;
16294;SDS011;8255;49.560;8.244;2023-05-07T08:53:53;2.60;;;2.40;;
16294;SDS011;8255;49.560;8.244;2023-05-07T08:56:29;2.70;;;2.38;;
16294;SDS011;8255;49.560;8.244;2023-05-07T08:58:55;2.40;;;2.30;;
16294;SDS011;8255;49.560;8.244;2023-05-07T09:01:26;2.85;;;2.35;;
16294;SDS011;8255;49.560;8.244;2023-05-07T09:03:53;2.67;;;2.47;;
16294;SDS011;8255;49.560;8.244;2023-05-07T09:06:21;2.80;;;2.58;;
16294;SDS011;8255;49.560;8.244;2023-05-07T09:08:49;3.13;;;2.30;;
16294;SDS011;8255;49.560;8.244;2023-05-07T09:11:16;2.25;;;2.15;;
16294;SDS011;8255;49.560;8.244;2023-05-07T09:13:42;2.25;;;2.15;;
16294;SDS011;8255;49.560;8.244;2023-05-07T09:16:12;2.70;;;2.50;;
16294;SDS011;8255;49.560;8.244;2023-05-07T09:18:42;2.10;;;2.00;;
16294;SDS011;8255;49.560;8.244;2023-05-07T09:21:11;2.10;;;2.00;;
16294;SDS011;8255;49.560;8.244;2023-05-07T09:23:38;3.28;;;1.80;;
16294;SDS011;8255;49.560;8.244;2023-05-07T09:26:05;2.72;;;2.20;;
16294;SDS011;8255;49.560;8.244;2023-05-07T09:28:40;1.95;;;1.85;;
16294;SDS011;8255;49.560;8.244;2023-05-07T09:31:10;2.20;;;2.10;;
16294;SDS011;8255;49.560;8.244;2023-05-07T09:33:37;2.30;;;2.20;;
16294;SDS011;8255;49.560;8.244;2023-05-07T09:36:06;2.55;;;2.38;;
16294;SDS011;8255;49.560;8.244;2023-05-07T09:38:33;2.47;;;2.30;;
16294;SDS011;8255;49.560;8.244;2023-05-07T09:41:03;3.95;;;2.33;;
16294;SDS011;8255;49.560;8.244;2023-05-07T09:43:32;2.08;;;2.00;;
16294;SDS011;8255;49.560;8.244;2023-05-07T09:46:05;2.08;;;1.92;;
16294;SDS011;8255;49.560;8.244;2023-05-07T09:48:34;2.47;;;2.20;;
16294;SDS011;8255;49.560;8.244;2023-05-07T09:51:02;2.97;;;2.00;;
16294;SDS011;8255;49.560;8.244;2023-05-07T09:53:34;2.42;;;2.17;;
16294;SDS011;8255;49.560;8.244;2023-05-07T09:56:03;3.30;;;1.98;;
16294;SDS011;8255;49.560;8.244;2023-05-07T09:58:31;2.60;;;2.40;;
16294;SDS011;8255;49.560;8.244;2023-05-07T10:00:58;2.67;;;2.45;;
16294;SDS011;8255;49.560;8.244;2023-05-07T10:03:26;2.50;;;2.30;;
16294;SDS011;8255;49.560;8.244;2023-05-07T10:05:58;3.13;;;2.15;;
16294;SDS011;8255;49.560;8.244;2023-05-07T10:08:25;2.38;;;2.28;;
16294;SDS011;8255;49.560;8.244;2023-05-07T10:10:56;2.35;;;2.20;;
16294;SDS011;8255;49.560;8.244;2023-05-07T10:13:25;3.22;;;2.17;;
16294;SDS011;8255;49.560;8.244;2023-05-07T10:15:55;2.63;;;2.40;;
16294;SDS011;8255;49.560;8.244;2023-05-07T10:18:23;3.40;;;2.15;;
16294;SDS011;8255;49.560;8.244;2023-05-07T10:20:57;2.30;;;2.05;;
16294;SDS011;8255;49.560;8.244;2023-05-07T10:23:25;2.30;;;2.20;;
16294;SDS011;8255;49.560;8.244;2023-05-07T10:25:58;3.00;;;2.17;;
16294;SDS011;8255;49.560;8.244;2023-05-07T10:28:24;2.95;;;2.15;;
16294;SDS011;8255;49.560;8.244;2023-05-07T10:30:58;2.85;;;2.25;;
16294;SDS011;8255;49.560;8.244;2023-05-07T10:33:33;2.63;;;2.42;;
16294;SDS011;8255;49.560;8.244;2023-05-07T10:36:01;2.35;;;2.25;;
16294;SDS011;8255;49.560;8.244;2023-05-07T10:38:30;2.28;;;2.08;;
16294;SDS011;8255;49.560;8.244;2023-05-07T10:41:00;2.05;;;2.00;;
16294;SDS011;8255;49.560;8.244;2023-05-07T10:43:38;2.10;;;1.90;;
16294;SDS011;8255;49.560;8.244;2023-05-07T10:46:09;2.35;;;2.25;;
16294;SDS011;8255;49.560;8.244;2023-05-07T10:48:44;2.10;;;1.95;;
16294;SDS011;8255;49.560;8.244;2023-05-07T10:51:40;2.40;;;2.30;;
16294;SDS011;8255;49.560;8.244;2023-05-07T10:54:21;2.50;;;2.40;;
16294;SDS011;8255;49.560;8.244;2023-05-07T10:57:10;2.53;;;2.42;;
16294;SDS011;8255;49.560;8.244;2023-05-07T10:59:59;2.08;;;1.98;;
16294;SDS011;8255;49.560;8.244;2023-05-07T11:05:42;2.40;;;2.30;;
16294;SDS011;8255;49.560;8.244;2023-05-07T11:08:24;2.40;;;2.30;;
16294;SDS011;8255;49.560;8.244;2023-05-07T11:11:04;2.13;;;2.03;;
16294;SDS011;8255;49.560;8.244;2023-05-07T11:13:44;2.53;;;2.03;;
16294;SDS011;8255;49.560;8.244;2023-05-07T11:16:18;4.18;;;2.50;;
16294;SDS011;8255;49.560;8.244;2023-05-07T11:18:46;4.38;;;2.15;;
16294;SDS011;8255;49.560;8.244;2023-05-07T11:21:16;2.58;;;2.28;;
16294;SDS011;8255;49.560;8.244;2023-05-07T11:24:04;2.33;;;2.22;;
16294;SDS011;8255;49.560;8.244;2023-05-07T11:26:42;2.25;;;2.15;;
16294;SDS011;8255;49.560;8.244;2023-05-07T11:29:12;2.55;;;2.42;;
16294;SDS011;8255;49.560;8.244;2023-05-07T11:31:40;2.20;;;2.10;;
16294;SDS011;8255;49.560;8.244;2023-05-07T11:34:07;2.20;;;2.10;;
16294;SDS011;8255;49.560;8.244;2023-05-07T11:36:34;2.30;;;2.20;;
16294;SDS011;8255;49.560;8.244;2023-05-07T11:39:04;2.40;;;2.30;;
16294;SDS011;8255;49.560;8.244;2023-05-07T11:41:34;2.20;;;2.10;;
16294;SDS011;8255;49.560;8.244;2023-05-07T11:44:01;1.98;;;1.77;;
16294;SDS011;8255;49.560;8.244;2023-05-07T11:46:29;2.05;;;1.90;;
16294;SDS011;8255;49.560;8.244;2023-05-07T11:48:56;1.80;;;1.70;;
16294;SDS011;8255;49.560;8.244;2023-05-07T11:51:23;2.28;;;2.17;;
16294;SDS011;8255;49.560;8.244;2023-05-07T11:53:51;2.10;;;1.98;;
16294;SDS011;8255;49.560;8.244;2023-05-07T11:56:18;1.90;;;1.80;;
16294;SDS011;8255;49.560;8.244;2023-05-07T11:58:45;2.10;;;2.00;;
16294;SDS011;8255;49.560;8.244;2023-05-07T12:01:12;1.98;;;1.73;;
16294;SDS011;8255;49.560;8.244;2023-05-07T12:03:41;2.15;;;1.95;;
16294;SDS011;8255;49.560;8.244;2023-05-07T12:06:09;2.20;;;1.80;;
16294;SDS011;8255;49.560;8.244;2023-05-07T12:08:36;2.05;;;1.90;;
16294;SDS011;8255;49.560;8.244;2023-05-07T12:11:03;2.67;;;1.95;;
16294;SDS011;8255;49.560;8.244;2023-05-07T12:13:29;1.70;;;1.70;;
16294;SDS011;8255;49.560;8.244;2023-05-07T12:15:56;1.83;;;1.73;;
16294;SDS011;8255;49.560;8.244;2023-05-07T12:18:22;1.85;;;1.75;;
16294;SDS011;8255;49.560;8.244;2023-05-07T12:20:51;2.20;;;2.10;;
16294;SDS011;8255;49.560;8.244;2023-05-07T12:23:17;2.13;;;2.03;;
16294;SDS011;8255;49.560;8.244;2023-05-07T12:25:44;2.15;;;2.05;;
16294;SDS011;8255;49.560;8.244;2023-05-07T12:28:13;2.83;;;1.90;;
16294;SDS011;8255;49.560;8.244;2023-05-07T12:30:40;2.08;;;1.98;;
16294;SDS011;8255;49.560;8.244;2023-05-07T12:33:08;1.73;;;1.70;;
16294;SDS011;8255;49.560;8.244;2023-05-07T12:35:36;1.95;;;1.85;;
16294;SDS011;8255;49.560;8.244;2023-05-07T12:38:07;2.00;;;1.85;;
16294;SDS011;8255;49.560;8.244;2023-05-07T12:40:36;1.80;;;1.70;;
16294;SDS011;8255;49.560;8.244;2023-05-07T12:43:03;2.20;;;2.03;;
16294;SDS011;8255;49.560;8.244;2023-05-07T12:45:30;1.88;;;1.80;;
16294;SDS011;8255;49.560;8.244;2023-05-07T12:47:57;2.33;;;2.10;;
16294;SDS011;8255;49.560;8.244;2023-05-07T12:50:30;3.42;;;1.90;;
16294;SDS011;8255;49.560;8.244;2023-05-07T12:52:57;2.25;;;2.05;;
16294;SDS011;8255;49.560;8.244;2023-05-07T12:55:25;2.60;;;2.10;;
16294;SDS011;8255;49.560;8.244;2023-05-07T12:57:52;3.70;;;2.33;;
16294;SDS011;8255;49.560;8.244;2023-05-07T13:00:31;1.95;;;1.83;;
16294;SDS011;8255;49.560;8.244;2023-05-07T13:02:58;2.40;;;2.20;;
16294;SDS011;8255;49.560;8.244;2023-05-07T13:05:24;2.00;;;1.90;;
16294;SDS011;8255;49.560;8.244;2023-05-07T13:07:54;3.63;;;2.00;;
16294;SDS011;8255;49.560;8.244;2023-05-07T13:10:21;2.00;;;1.90;;
16294;SDS011;8255;49.560;8.244;2023-05-07T13:12:49;2.10;;;2.00;;
16294;SDS011;8255;49.560;8.244;2023-05-07T13:15:15;2.33;;;2.00;;
16294;SDS011;8255;49.560;8.244;2023-05-07T13:17:42;2.03;;;2.03;;
16294;SDS011;8255;49.560;8.244;2023-05-07T13:20:09;2.00;;;1.90;;
16294;SDS011;8255;49.560;8.244;2023-05-07T13:22:36;2.00;;;1.90;;
16294;SDS011;8255;49.560;8.244;2023-05-07T13:25:03;2.10;;;2.00;;
16294;SDS011;8255;49.560;8.244;2023-05-07T13:27:30;2.25;;;2.05;;
16294;SDS011;8255;49.560;8.244;2023-05-07T13:29:58;2.97;;;2.17;;
16294;SDS011;8255;49.560;8.244;2023-05-07T13:32:24;2.40;;;2.08;;
16294;SDS011;8255;49.560;8.244;2023-05-07T13:34:51;2.55;;;2.08;;
16294;SDS011;8255;49.560;8.244;2023-05-07T13:37:17;2.17;;;2.08;;
16294;SDS011;8255;49.560;8.244;2023-05-07T13:39:44;2.20;;;1.98;;
16294;SDS011;8255;49.560;8.244;2023-05-07T13:42:10;2.30;;;2.20;;
16294;SDS011;8255;49.560;8.244;2023-05-07T13:44:37;2.50;;;2.30;;
16294;SDS011;8255;49.560;8.244;2023-05-07T13:47:05;2.53;;;2.28;;
16294;SDS011;8255;49.560;8.244;2023-05-07T13:49:32;2.30;;;2.20;;
16294;SDS011;8255;49.560;8.244;2023-05-07T13:51:58;3.78;;;3.05;;
16294;SDS011;8255;49.560;8.244;2023-05-07T13:54:25;2.20;;;2.10;;
16294;SDS011;8255;49.560;8.244;2023-05-07T13:56:51;2.50;;;2.30;;
16294;SDS011;8255;49.560;8.244;2023-05-07T13:59:18;2.28;;;2.10;;
16294;SDS011;8255;49.560;8.244;2023-05-07T14:01:44;2.78;;;2.58;;
16294;SDS011;8255;49.560;8.244;2023-05-07T14:04:12;2.47;;;2.38;;
16294;SDS011;8255;49.560;8.244;2023-05-07T14:06:38;2.67;;;2.47;;
16294;SDS011;8255;49.560;8.244;2023-05-07T14:09:05;2.75;;;2.53;;
16294;SDS011;8255;49.560;8.244;2023-05-07T14:11:32;2.50;;;2.40;;
16294;SDS011;8255;49.560;8.244;2023-05-07T14:13:58;2.17;;;2.08;;
16294;SDS011;8255;49.560;8.244;2023-05-07T14:16:25;4.10;;;2.50;;
16294;SDS011;8255;49.560;8.244;2023-05-07T14:18:51;2.70;;;2.50;;
16294;SDS011;8255;49.560;8.244;2023-05-07T14:21:19;2.55;;;2.45;;
16294;SDS011;8255;49.560;8.244;2023-05-07T14:23:45;2.63;;;2.50;;
16294;SDS011;8255;49.560;8.244;2023-05-07T14:26:12;2.40;;;2.30;;
16294;SDS011;8255;49.560;8.244;2023-05-07T14:28:38;2.85;;;2.75;;
16294;SDS011;8255;49.560;8.244;2023-05-07T14:31:07;3.97;;;2.53;;
16294;SDS011;8255;49.560;8.244;2023-05-07T14:33:34;3.83;;;2.78;;
16294;SDS011;8255;49.560;8.244;2023-05-07T14:36:01;2.80;;;2.70;;
16294;SDS011;8255;49.560;8.244;2023-05-07T14:38:29;3.25;;;2.72;;
16294;SDS011;8255;49.560;8.244;2023-05-07T14:40:58;4.50;;;4.00;;
16294;SDS011;8255;49.560;8.244;2023-05-07T14:43:24;4.35;;;3.60;;
16294;SDS011;8255;49.560;8.244;2023-05-07T14:45:51;3.90;;;3.60;;
16294;SDS011;8255;49.560;8.244;2023-05-07T14:48:18;3.88;;;3.67;;
16294;SDS011;8255;49.560;8.244;2023-05-07T14:50:46;3.60;;;3.28;;
16294;SDS011;8255;49.560;8.244;2023-05-07T14:53:12;3.83;;;3.63;;
16294;SDS011;8255;49.560;8.244;2023-05-07T14:55:40;3.47;;;3.13;;
16294;SDS011;8255;49.560;8.244;2023-05-07T14:58:07;3.70;;;3.40;;
16294;SDS011;8255;49.560;8.244;2023-05-07T15:00:33;3.13;;;2.92;;
16294;SDS011;8255;49.560;8.244;2023-05-07T15:03:03;3.72;;;2.90;;
16294;SDS011;8255;49.560;8.244;2023-05-07T15:05:31;5.35;;;3.05;;
16294;SDS011;8255;49.560;8.244;2023-05-07T15:07:57;3.13;;;2.65;;
16294;SDS011;8255;49.560;8.244;2023-05-07T15:10:23;3.30;;;2.88;;